sensor_id;sensor_type;location;lat;lon;timestamp;pressure;altitude;pressure_sealevel;temperature;humidity
4598;BME280;62772;48.646;8.906;2023-01-29T00:02:50;97270.25;;;-1.96;100.00
4598;BME280;62772;48.646;8.906;2023-01-29T00:07:50;97255.72;;;-1.86;100.00
4598;BME280;62772;48.646;8.906;2023-01-29T00:12:50;97249.44;;;-1.85;100.00
4598;BME280;62772;48.646;8.906;2023-01-29T00:17:52;97257.34;;;-1.98;100.00
4598;BME280;62772;48.646;8.906;2023-01-29T00:22:52;97254.16;;;-2.13;100.00
4598;BME280;62772;48.646;8.906;2023-01-29T00:27:53;97249.28;;;-1.90;100.00
4598;BME280;62772;48.646;8.906;2023-01-29T00:32:53;97247.38;;;-2.41;100.00
4598;BME280;62772;48.646;8.906;2023-01-29T00:37:54;97246.41;;;-2.40;100.00
4598;BME280;62772;48.646;8.906;2023-01-29T00:42:55;97252.78;;;-2.16;100.00
4598;BME280;62772;48.646;8.906;2023-01-29T00:48:14;97242.25;;;-2.03;100.00
4598;BME280;62772;48.646;8.906;2023-01-29T00:53:14;97253.50;;;-1.89;100.00
4598;BME280;62772;48.646;8.906;2023-01-29T00:58:15;97249.34;;;-2.16;100.00
4598;BME280;62772;48.646;8.906;2023-01-29T01:03:21;97248.28;;;-1.95;100.00
4598;BME280;62772;48.646;8.906;2023-01-29T01:08:21;97245.84;;;-1.90;100.00
4598;BME280;62772;48.646;8.906;2023-01-29T01:13:40;97244.84;;;-1.96;100.00
4598;BME280;62772;48.646;8.906;2023-01-29T01:18:42;97252.91;;;-1.91;100.00
4598;BME280;62772;48.646;8.906;2023-01-29T01:23:45;97250.72;;;-1.94;100.00
4598;BME280;62772;48.646;8.906;2023-01-29T01:28:46;97248.47;;;-1.90;100.00
4598;BME280;62772;48.646;8.906;2023-01-29T01:33:46;97249.13;;;-2.02;100.00
4598;BME280;62772;48.646;8.906;2023-01-29T01:38:47;97242.53;;;-2.24;100.00
4598;BME280;62772;48.646;8.906;2023-01-29T01:44:01;97234.72;;;-2.44;100.00
4598;BME280;62772;48.646;8.906;2023-01-29T01:49:09;97232.91;;;-2.44;100.00
4598;BME280;62772;48.646;8.906;2023-01-29T01:54:18;97232.69;;;-2.42;100.00
4598;BME280;62772;48.646;8.906;2023-01-29T01:59:22;97232.75;;;-2.89;100.00
4598;BME280;62772;48.646;8.906;2023-01-29T02:04:25;97230.06;;;-2.35;100.00
4598;BME280;62772;48.646;8.906;2023-01-29T02:10:10;97229.88;;;-2.41;100.00
4598;BME280;62772;48.646;8.906;2023-01-29T02:15:12;97233.72;;;-2.43;100.00
4598;BME280;62772;48.646;8.906;2023-01-29T02:20:25;97236.56;;;-2.65;100.00
4598;BME280;62772;48.646;8.906;2023-01-29T02:30:48;97240.78;;;-2.90;100.00
4598;BME280;62772;48.646;8.906;2023-01-29T02:41:31;97246.59;;;-2.82;100.00
4598;BME280;62772;48.646;8.906;2023-01-29T02:46:41;97242.59;;;-2.78;100.00
4598;BME280;62772;48.646;8.906;2023-01-29T02:51:54;97237.34;;;-2.71;100.00
4598;BME280;62772;48.646;8.906;2023-01-29T02:57:08;97235.72;;;-2.32;100.00
4598;BME280;62772;48.646;8.906;2023-01-29T03:02:17;97236.38;;;-2.77;100.00
4598;BME280;62772;48.646;8.906;2023-01-29T03:07:27;97225.69;;;-2.95;100.00
4598;BME280;62772;48.646;8.906;2023-01-29T03:12:53;97231.94;;;-2.89;100.00
4598;BME280;62772;48.646;8.906;2023-01-29T03:18:00;97234.97;;;-2.93;100.00
4598;BME280;62772;48.646;8.906;2023-01-29T03:23:12;97237.75;;;-2.61;100.00
4598;BME280;62772;48.646;8.906;2023-01-29T03:28:16;97225.28;;;-2.65;100.00
4598;BME280;62772;48.646;8.906;2023-01-29T03:34:26;97230.25;;;-2.37;100.00
4598;BME280;62772;48.646;8.906;2023-01-29T03:39:05;97244.75;;;-2.21;100.00
4598;BME280;62772;48.646;8.906;2023-01-29T03:44:29;97248.97;;;-2.27;100.00
4598;BME280;62772;48.646;8.906;2023-01-29T03:55:14;97234.53;;;-3.03;100.00
4598;BME280;62772;48.646;8.906;2023-01-29T04:00:19;97244.00;;;-3.08;100.00
4598;BME280;62772;48.646;8.906;2023-01-29T04:05:37;97234.75;;;-2.84;100.00
4598;BME280;62772;48.646;8.906;2023-01-29T04:10:46;97241.59;;;-3.03;100.00
4598;BME280;62772;48.646;8.906;2023-01-29T04:15:55;97236.16;;;-3.08;100.00
4598;BME280;62772;48.646;8.906;2023-01-29T04:21:13;97234.94;;;-2.66;100.00
4598;BME280;62772;48.646;8.906;2023-01-29T04:26:23;97240.13;;;-2.39;100.00
4598;BME280;62772;48.646;8.906;2023-01-29T04:31:40;97237.06;;;-2.16;100.00
4598;BME280;62772;48.646;8.906;2023-01-29T04:36:58;97235.63;;;-1.98;100.00
4598;BME280;62772;48.646;8.906;2023-01-29T04:42:13;97232.59;;;-2.02;100.00
4598;BME280;62772;48.646;8.906;2023-01-29T04:47:30;97244.38;;;-2.38;100.00
4598;BME280;62772;48.646;8.906;2023-01-29T04:52:50;97231.28;;;-2.51;100.00
4598;BME280;62772;48.646;8.906;2023-01-29T04:58:07;97234.22;;;-2.01;100.00
4598;BME280;62772;48.646;8.906;2023-01-29T05:03:12;97235.69;;;-2.25;100.00
4598;BME280;62772;48.646;8.906;2023-01-29T05:08:17;97236.34;;;-2.97;100.00
4598;BME280;62772;48.646;8.906;2023-01-29T05:13:20;97225.66;;;-2.55;100.00
4598;BME280;62772;48.646;8.906;2023-01-29T05:18:22;97239.50;;;-2.21;100.00
4598;BME280;62772;48.646;8.906;2023-01-29T05:23:22;97233.84;;;-2.18;100.00
4598;BME280;62772;48.646;8.906;2023-01-29T05:28:23;97228.00;;;-2.07;100.00
4598;BME280;62772;48.646;8.906;2023-01-29T05:33:28;97236.56;;;-1.86;100.00
4598;BME280;62772;48.646;8.906;2023-01-29T05:38:29;97240.97;;;-1.80;100.00
4598;BME280;62772;48.646;8.906;2023-01-29T05:43:30;97242.78;;;-1.80;100.00
4598;BME280;62772;48.646;8.906;2023-01-29T05:48:30;97242.66;;;-1.99;100.00
4598;BME280;62772;48.646;8.906;2023-01-29T05:53:31;97233.38;;;-1.95;100.00
4598;BME280;62772;48.646;8.906;2023-01-29T05:58:33;97217.94;;;-2.16;100.00
4598;BME280;62772;48.646;8.906;2023-01-29T06:03:33;97194.19;;;-2.15;100.00
4598;BME280;62772;48.646;8.906;2023-01-29T06:08:34;97195.22;;;-2.23;100.00
4598;BME280;62772;48.646;8.906;2023-01-29T06:13:35;97202.75;;;-1.88;100.00
4598;BME280;62772;48.646;8.906;2023-01-29T06:18:36;97208.00;;;-1.94;100.00
4598;BME280;62772;48.646;8.906;2023-01-29T06:23:36;97221.78;;;-2.19;100.00
4598;BME280;62772;48.646;8.906;2023-01-29T06:28:37;97223.00;;;-2.28;100.00
4598;BME280;62772;48.646;8.906;2023-01-29T06:33:37;97223.91;;;-1.96;100.00
4598;BME280;62772;48.646;8.906;2023-01-29T06:38:38;97219.56;;;-2.22;100.00
4598;BME280;62772;48.646;8.906;2023-01-29T06:43:38;97234.09;;;-2.33;100.00
4598;BME280;62772;48.646;8.906;2023-01-29T06:48:39;97231.09;;;-2.37;100.00
4598;BME280;62772;48.646;8.906;2023-01-29T06:53:39;97238.16;;;-1.78;100.00
4598;BME280;62772;48.646;8.906;2023-01-29T06:58:40;97228.69;;;-1.79;100.00
4598;BME280;62772;48.646;8.906;2023-01-29T07:03:40;97241.38;;;-1.76;100.00
4598;BME280;62772;48.646;8.906;2023-01-29T07:08:41;97240.75;;;-1.78;100.00
4598;BME280;62772;48.646;8.906;2023-01-29T07:13:42;97243.84;;;-1.95;100.00
4598;BME280;62772;48.646;8.906;2023-01-29T07:18:42;97238.41;;;-1.93;100.00
4598;BME280;62772;48.646;8.906;2023-01-29T07:23:42;97239.50;;;-2.28;100.00
4598;BME280;62772;48.646;8.906;2023-01-29T07:28:43;97229.28;;;-1.77;100.00
4598;BME280;62772;48.646;8.906;2023-01-29T07:33:44;97231.97;;;-1.97;100.00
4598;BME280;62772;48.646;8.906;2023-01-29T07:38:48;97245.81;;;-1.84;100.00
4598;BME280;62772;48.646;8.906;2023-01-29T07:43:49;97262.19;;;-1.95;100.00
4598;BME280;62772;48.646;8.906;2023-01-29T07:48:49;97265.03;;;-2.03;100.00
4598;BME280;62772;48.646;8.906;2023-01-29T07:53:50;97264.91;;;-1.70;100.00
4598;BME280;62772;48.646;8.906;2023-01-29T07:58:50;97270.63;;;-1.93;100.00
4598;BME280;62772;48.646;8.906;2023-01-29T08:03:51;97273.91;;;-1.52;100.00
4598;BME280;62772;48.646;8.906;2023-01-29T08:08:51;97283.44;;;-1.65;100.00
4598;BME280;62772;48.646;8.906;2023-01-29T08:13:52;97273.53;;;-1.56;100.00
4598;BME280;62772;48.646;8.906;2023-01-29T08:18:53;97274.16;;;-1.67;100.00
4598;BME280;62772;48.646;8.906;2023-01-29T08:23:54;97272.81;;;-1.76;100.00
4598;BME280;62772;48.646;8.906;2023-01-29T08:28:54;97269.31;;;-2.29;100.00
4598;BME280;62772;48.646;8.906;2023-01-29T08:33:55;97284.28;;;-1.77;100.00
4598;BME280;62772;48.646;8.906;2023-01-29T08:38:55;97289.28;;;-1.69;100.00
4598;BME280;62772;48.646;8.906;2023-01-29T08:43:56;97298.59;;;-1.73;100.00
4598;BME280;62772;48.646;8.906;2023-01-29T08:48:57;97292.91;;;-1.63;100.00
4598;BME280;62772;48.646;8.906;2023-01-29T08:53:57;97301.91;;;-1.46;100.00
4598;BME280;62772;48.646;8.906;2023-01-29T08:58:58;97299.41;;;-1.86;100.00
4598;BME280;62772;48.646;8.906;2023-01-29T09:03:59;97302.47;;;-1.89;100.00
4598;BME280;62772;48.646;8.906;2023-01-29T09:08:59;97304.56;;;-1.59;100.00
4598;BME280;62772;48.646;8.906;2023-01-29T09:14:00;97292.09;;;-1.71;100.00
4598;BME280;62772;48.646;8.906;2023-01-29T09:19:00;97301.03;;;-1.85;100.00
4598;BME280;62772;48.646;8.906;2023-01-29T09:24:00;97305.09;;;-2.09;100.00
4598;BME280;62772;48.646;8.906;2023-01-29T09:29:01;97314.06;;;-1.65;100.00
4598;BME280;62772;48.646;8.906;2023-01-29T09:34:02;97315.13;;;-1.86;100.00
4598;BME280;62772;48.646;8.906;2023-01-29T09:39:02;97305.53;;;-2.39;100.00
4598;BME280;62772;48.646;8.906;2023-01-29T09:44:10;97309.28;;;-1.88;100.00
4598;BME280;62772;48.646;8.906;2023-01-29T09:49:30;97314.03;;;-1.58;100.00
4598;BME280;62772;48.646;8.906;2023-01-29T09:54:45;97299.00;;;-1.31;100.00
4598;BME280;62772;48.646;8.906;2023-01-29T09:59:48;97301.81;;;-1.33;100.00
4598;BME280;62772;48.646;8.906;2023-01-29T10:05:05;97285.31;;;-1.33;100.00
4598;BME280;62772;48.646;8.906;2023-01-29T10:15:55;97256.28;;;-1.32;100.00
4598;BME280;62772;48.646;8.906;2023-01-29T10:26:36;97249.22;;;-0.99;100.00
4598;BME280;62772;48.646;8.906;2023-01-29T10:31:39;97243.22;;;-1.06;100.00
4598;BME280;62772;48.646;8.906;2023-01-29T10:36:46;97239.31;;;-0.97;100.00
4598;BME280;62772;48.646;8.906;2023-01-29T10:52:33;97245.69;;;-1.50;100.00
4598;BME280;62772;48.646;8.906;2023-01-29T10:57:47;97240.22;;;-1.49;100.00
4598;BME280;62772;48.646;8.906;2023-01-29T11:02:51;97241.50;;;-1.19;100.00
4598;BME280;62772;48.646;8.906;2023-01-29T11:08:04;97232.28;;;-1.35;100.00
4598;BME280;62772;48.646;8.906;2023-01-29T11:13:13;97236.97;;;-1.44;100.00
4598;BME280;62772;48.646;8.906;2023-01-29T11:18:14;97251.19;;;-1.65;100.00
4598;BME280;62772;48.646;8.906;2023-01-29T11:23:26;97249.38;;;-1.65;100.00
4598;BME280;62772;48.646;8.906;2023-01-29T11:28:41;97243.44;;;-1.92;100.00
4598;BME280;62772;48.646;8.906;2023-01-29T11:33:42;97243.81;;;-1.36;100.00
4598;BME280;62772;48.646;8.906;2023-01-29T11:38:43;97231.84;;;-1.00;100.00
4598;BME280;62772;48.646;8.906;2023-01-29T11:43:44;97219.41;;;-1.05;100.00
4598;BME280;62772;48.646;8.906;2023-01-29T11:48:49;97210.06;;;-1.26;100.00
4598;BME280;62772;48.646;8.906;2023-01-29T11:54:01;97205.97;;;-0.65;100.00
4598;BME280;62772;48.646;8.906;2023-01-29T11:59:04;97206.47;;;-0.56;100.00
4598;BME280;62772;48.646;8.906;2023-01-29T12:04:33;97195.34;;;-0.51;100.00
4598;BME280;62772;48.646;8.906;2023-01-29T12:09:37;97201.44;;;-1.01;100.00
4598;BME280;62772;48.646;8.906;2023-01-29T12:14:38;97194.13;;;-1.24;100.00
4598;BME280;62772;48.646;8.906;2023-01-29T12:19:43;97175.56;;;-0.98;100.00
4598;BME280;62772;48.646;8.906;2023-01-29T12:30:16;97141.75;;;-0.62;100.00
4598;BME280;62772;48.646;8.906;2023-01-29T12:35:34;97141.31;;;-0.78;100.00
4598;BME280;62772;48.646;8.906;2023-01-29T12:40:42;97123.91;;;-0.53;100.00
4598;BME280;62772;48.646;8.906;2023-01-29T12:45:49;97106.88;;;-0.44;100.00
4598;BME280;62772;48.646;8.906;2023-01-29T12:50:52;97083.81;;;-0.42;100.00
4598;BME280;62772;48.646;8.906;2023-01-29T12:56:00;97065.28;;;-0.29;100.00
4598;BME280;62772;48.646;8.906;2023-01-29T13:01:14;97062.03;;;-0.98;100.00
4598;BME280;62772;48.646;8.906;2023-01-29T13:06:17;97064.94;;;-0.51;100.00
4598;BME280;62772;48.646;8.906;2023-01-29T13:11:36;97062.13;;;-0.19;100.00
4598;BME280;62772;48.646;8.906;2023-01-29T13:16:44;97067.16;;;-0.66;100.00
4598;BME280;62772;48.646;8.906;2023-01-29T13:21:47;97073.44;;;-1.11;100.00
4598;BME280;62772;48.646;8.906;2023-01-29T13:26:48;97067.34;;;-1.05;100.00
4598;BME280;62772;48.646;8.906;2023-01-29T13:31:50;97057.66;;;-0.49;100.00
4598;BME280;62772;48.646;8.906;2023-01-29T13:36:54;97046.19;;;-0.36;100.00
4598;BME280;62772;48.646;8.906;2023-01-29T13:41:58;97049.38;;;-0.15;100.00
4598;BME280;62772;48.646;8.906;2023-01-29T13:47:03;97054.97;;;-0.79;100.00
4598;BME280;62772;48.646;8.906;2023-01-29T13:52:42;97059.34;;;-0.92;100.00
4598;BME280;62772;48.646;8.906;2023-01-29T14:18:22;97076.56;;;-0.59;100.00
4598;BME280;62772;48.646;8.906;2023-01-29T14:28:35;97077.25;;;-0.51;100.00
4598;BME280;62772;48.646;8.906;2023-01-29T14:33:38;97068.66;;;-0.10;100.00
4598;BME280;62772;48.646;8.906;2023-01-29T14:38:46;97068.00;;;-0.05;100.00
4598;BME280;62772;48.646;8.906;2023-01-29T14:43:47;97068.59;;;-0.03;100.00
4598;BME280;62772;48.646;8.906;2023-01-29T14:48:48;97071.00;;;-0.69;100.00
4598;BME280;62772;48.646;8.906;2023-01-29T14:53:53;97075.44;;;-1.06;100.00
4598;BME280;62772;48.646;8.906;2023-01-29T15:04:06;97059.88;;;-1.26;100.00
4598;BME280;62772;48.646;8.906;2023-01-29T15:15:10;97057.25;;;-1.26;100.00
4598;BME280;62772;48.646;8.906;2023-01-29T15:20:29;97049.72;;;-0.98;100.00
4598;BME280;62772;48.646;8.906;2023-01-29T15:25:34;97058.53;;;-0.92;100.00
4598;BME280;62772;48.646;8.906;2023-01-29T15:30:36;97057.50;;;-1.10;100.00
4598;BME280;62772;48.646;8.906;2023-01-29T15:35:38;97069.88;;;-1.17;100.00
4598;BME280;62772;48.646;8.906;2023-01-29T15:40:40;97057.75;;;-1.18;100.00
4598;BME280;62772;48.646;8.906;2023-01-29T15:45:40;97054.16;;;-0.80;100.00
4598;BME280;62772;48.646;8.906;2023-01-29T15:50:41;97045.13;;;-1.21;100.00
4598;BME280;62772;48.646;8.906;2023-01-29T15:55:43;97048.41;;;-0.88;100.00
4598;BME280;62772;48.646;8.906;2023-01-29T16:00:48;97050.16;;;-1.01;100.00
4598;BME280;62772;48.646;8.906;2023-01-29T16:05:50;97052.72;;;-0.76;100.00
4598;BME280;62772;48.646;8.906;2023-01-29T16:10:54;97050.50;;;-0.97;100.00
4598;BME280;62772;48.646;8.906;2023-01-29T16:15:58;97053.88;;;-0.71;100.00
4598;BME280;62772;48.646;8.906;2023-01-29T16:21:02;97049.31;;;-0.76;100.00
4598;BME280;62772;48.646;8.906;2023-01-29T16:26:08;97055.38;;;-1.19;100.00
4598;BME280;62772;48.646;8.906;2023-01-29T16:31:20;97048.06;;;-0.92;100.00
4598;BME280;62772;48.646;8.906;2023-01-29T16:36:23;97044.28;;;-1.65;100.00
4598;BME280;62772;48.646;8.906;2023-01-29T16:46:35;97056.16;;;-1.94;100.00
4598;BME280;62772;48.646;8.906;2023-01-29T16:51:37;97048.91;;;-2.31;100.00
4598;BME280;62772;48.646;8.906;2023-01-29T16:56:38;97047.91;;;-2.30;100.00
4598;BME280;62772;48.646;8.906;2023-01-29T17:01:39;97053.16;;;-1.98;100.00
4598;BME280;62772;48.646;8.906;2023-01-29T17:06:43;97070.25;;;-2.27;100.00
4598;BME280;62772;48.646;8.906;2023-01-29T17:11:44;97074.84;;;-2.23;100.00
4598;BME280;62772;48.646;8.906;2023-01-29T17:16:52;97073.56;;;-2.13;100.00
4598;BME280;62772;48.646;8.906;2023-01-29T17:21:53;97073.19;;;-2.56;100.00
4598;BME280;62772;48.646;8.906;2023-01-29T17:26:53;97078.66;;;-2.77;100.00
4598;BME280;62772;48.646;8.906;2023-01-29T17:31:54;97069.44;;;-2.80;100.00
4598;BME280;62772;48.646;8.906;2023-01-29T17:36:55;97063.53;;;-2.62;100.00
4598;BME280;62772;48.646;8.906;2023-01-29T17:41:57;97069.50;;;-3.06;100.00
4598;BME280;62772;48.646;8.906;2023-01-29T17:46:57;97056.78;;;-2.38;100.00
4598;BME280;62772;48.646;8.906;2023-01-29T17:51:59;97058.47;;;-3.08;100.00
4598;BME280;62772;48.646;8.906;2023-01-29T17:56:59;97063.81;;;-2.90;100.00
4598;BME280;62772;48.646;8.906;2023-01-29T18:01:59;97060.41;;;-2.32;100.00
4598;BME280;62772;48.646;8.906;2023-01-29T18:07:00;97056.16;;;-2.85;100.00
4598;BME280;62772;48.646;8.906;2023-01-29T18:12:00;97048.81;;;-3.21;100.00
4598;BME280;62772;48.646;8.906;2023-01-29T18:17:01;97048.22;;;-3.84;100.00
4598;BME280;62772;48.646;8.906;2023-01-29T18:22:01;97041.75;;;-2.94;100.00
4598;BME280;62772;48.646;8.906;2023-01-29T18:27:02;97042.25;;;-3.64;100.00
4598;BME280;62772;48.646;8.906;2023-01-29T18:32:02;97039.00;;;-3.73;100.00
4598;BME280;62772;48.646;8.906;2023-01-29T18:37:03;97040.00;;;-3.34;100.00
4598;BME280;62772;48.646;8.906;2023-01-29T18:42:04;97040.41;;;-3.37;100.00
4598;BME280;62772;48.646;8.906;2023-01-29T18:47:04;97039.03;;;-3.59;100.00
4598;BME280;62772;48.646;8.906;2023-01-29T18:52:06;97045.03;;;-3.46;100.00
4598;BME280;62772;48.646;8.906;2023-01-29T18:57:06;97044.81;;;-3.24;100.00
4598;BME280;62772;48.646;8.906;2023-01-29T19:02:12;97043.41;;;-3.26;100.00
4598;BME280;62772;48.646;8.906;2023-01-29T19:07:13;97037.59;;;-3.49;100.00
4598;BME280;62772;48.646;8.906;2023-01-29T19:12:13;97034.38;;;-3.37;100.00
4598;BME280;62772;48.646;8.906;2023-01-29T19:17:14;97045.34;;;-2.95;100.00
4598;BME280;62772;48.646;8.906;2023-01-29T19:22:15;97047.41;;;-3.37;100.00
4598;BME280;62772;48.646;8.906;2023-01-29T19:27:15;97059.09;;;-3.53;100.00
4598;BME280;62772;48.646;8.906;2023-01-29T19:32:16;97062.84;;;-3.02;100.00
4598;BME280;62772;48.646;8.906;2023-01-29T19:37:16;97064.50;;;-3.55;100.00
4598;BME280;62772;48.646;8.906;2023-01-29T19:42:17;97067.91;;;-3.74;100.00
4598;BME280;62772;48.646;8.906;2023-01-29T19:47:18;97064.28;;;-3.26;100.00
4598;BME280;62772;48.646;8.906;2023-01-29T19:52:19;97067.28;;;-3.03;100.00
4598;BME280;62772;48.646;8.906;2023-01-29T19:57:34;97065.69;;;-3.11;100.00
4598;BME280;62772;48.646;8.906;2023-01-29T20:02:35;97061.47;;;-3.25;100.00
4598;BME280;62772;48.646;8.906;2023-01-29T20:07:35;97063.09;;;-3.71;100.00
4598;BME280;62772;48.646;8.906;2023-01-29T20:12:36;97055.66;;;-3.87;100.00
4598;BME280;62772;48.646;8.906;2023-01-29T20:17:37;97060.28;;;-3.96;100.00
4598;BME280;62772;48.646;8.906;2023-01-29T20:22:38;97062.50;;;-3.66;100.00
4598;BME280;62772;48.646;8.906;2023-01-29T20:27:38;97058.91;;;-3.72;100.00
4598;BME280;62772;48.646;8.906;2023-01-29T20:32:39;97063.22;;;-4.81;100.00
4598;BME280;62772;48.646;8.906;2023-01-29T20:37:39;97066.91;;;-5.03;100.00
4598;BME280;62772;48.646;8.906;2023-01-29T20:42:40;97049.75;;;-5.26;100.00
4598;BME280;62772;48.646;8.906;2023-01-29T20:47:41;97040.63;;;-5.15;100.00
4598;BME280;62772;48.646;8.906;2023-01-29T20:52:41;97032.38;;;-4.77;100.00
4598;BME280;62772;48.646;8.906;2023-01-29T20:57:42;97026.81;;;-4.67;100.00
4598;BME280;62772;48.646;8.906;2023-01-29T21:02:42;97013.91;;;-4.01;100.00
4598;BME280;62772;48.646;8.906;2023-01-29T21:07:45;97006.47;;;-3.63;100.00
4598;BME280;62772;48.646;8.906;2023-01-29T21:12:45;97006.84;;;-3.53;100.00
4598;BME280;62772;48.646;8.906;2023-01-29T21:17:46;96997.03;;;-3.65;100.00
4598;BME280;62772;48.646;8.906;2023-01-29T21:22:47;96993.03;;;-3.60;100.00
4598;BME280;62772;48.646;8.906;2023-01-29T21:27:48;97001.66;;;-3.67;100.00
4598;BME280;62772;48.646;8.906;2023-01-29T21:32:49;97011.28;;;-3.40;100.00
4598;BME280;62772;48.646;8.906;2023-01-29T21:37:49;97007.88;;;-3.74;100.00
4598;BME280;62772;48.646;8.906;2023-01-29T21:42:50;97008.28;;;-3.64;100.00
4598;BME280;62772;48.646;8.906;2023-01-29T21:48:10;97011.50;;;-3.55;100.00
4598;BME280;62772;48.646;8.906;2023-01-29T21:53:10;97002.44;;;-3.66;100.00
4598;BME280;62772;48.646;8.906;2023-01-29T21:58:11;96999.03;;;-3.87;100.00
4598;BME280;62772;48.646;8.906;2023-01-29T22:03:11;97003.66;;;-3.55;100.00
4598;BME280;62772;48.646;8.906;2023-01-29T22:08:11;96996.44;;;-3.67;100.00
4598;BME280;62772;48.646;8.906;2023-01-29T22:13:12;97001.47;;;-3.65;100.00
4598;BME280;62772;48.646;8.906;2023-01-29T22:18:13;97008.28;;;-4.04;100.00
4598;BME280;62772;48.646;8.906;2023-01-29T22:23:13;96997.03;;;-4.05;100.00
4598;BME280;62772;48.646;8.906;2023-01-29T22:28:15;96984.81;;;-3.84;100.00
4598;BME280;62772;48.646;8.906;2023-01-29T22:33:15;96986.00;;;-3.67;100.00
4598;BME280;62772;48.646;8.906;2023-01-29T22:38:16;96978.56;;;-3.96;100.00
4598;BME280;62772;48.646;8.906;2023-01-29T22:43:16;96981.56;;;-3.66;100.00
4598;BME280;62772;48.646;8.906;2023-01-29T22:48:17;96981.00;;;-3.75;100.00
4598;BME280;62772;48.646;8.906;2023-01-29T22:53:18;96970.53;;;-3.95;100.00
4598;BME280;62772;48.646;8.906;2023-01-29T22:58:18;96959.91;;;-3.73;100.00
4598;BME280;62772;48.646;8.906;2023-01-29T23:03:19;96936.97;;;-3.65;100.00
4598;BME280;62772;48.646;8.906;2023-01-29T23:08:19;96918.34;;;-3.95;100.00
4598;BME280;62772;48.646;8.906;2023-01-29T23:13:20;96913.31;;;-3.76;100.00
4598;BME280;62772;48.646;8.906;2023-01-29T23:18:20;96906.50;;;-3.84;100.00
4598;BME280;62772;48.646;8.906;2023-01-29T23:23:20;96890.59;;;-3.69;100.00
4598;BME280;62772;48.646;8.906;2023-01-29T23:28:21;96901.09;;;-3.89;100.00
4598;BME280;62772;48.646;8.906;2023-01-29T23:33:21;96891.03;;;-3.79;100.00
4598;BME280;62772;48.646;8.906;2023-01-29T23:38:22;96877.16;;;-3.73;100.00
4598;BME280;62772;48.646;8.906;2023-01-29T23:43:26;96872.56;;;-3.84;100.00
4598;BME280;62772;48.646;8.906;2023-01-29T23:48:27;96883.19;;;-3.72;100.00
4598;BME280;62772;48.646;8.906;2023-01-29T23:53:27;96877.81;;;-3.91;100.00
4598;BME280;62772;48.646;8.906;2023-01-29T23:58:29;96863.97;;;-3.85;100.00
